Terminal Aerodrome Forecast
Issued by NWS Duluth, MN

Home | Current Version | Previous Version | Text Only | Print | Product List | Glossary On
Versions: 1 2 3 4 5 6 7 8 9 10 11 12 13 14 15 16 17 18 19 20 21 22 23 24 25 26 27 28 29 30 31 32
000
FTUS43 KDLH 090000 AAA
TAFDLH
TAF AMD
KDLH 090010Z 0900/0924 32005KT P6SM VCSH SCT035 BKN070
      TEMPO 0900/0902 34012G20KT 5SM RA BR BKN035
     FM090600 29003KT P6SM SCT050
     FM091600 31008KT P6SM SCT060=

USA.gov is the U.S. government's official web portal to all federal, state and local government web resources and services.